Bijou, California
Current Conditions -  °F | °C
As of 11:53 AM on Friday 31 Oct 2014 (Local Time) from KTVL Reporting Station
Clear Clear  
Wind Chill: 58°   Ceiling: Unl
Heat Index: 58°   Visibility: 10mi
Dew Point: 27°   Wind: 24mph
Humidity: 31%   Direction: 190°S
Pressure: 29.88"   Gusts: 36mph
Location:  38.9467°N, 119.967°W
Report Text: KTVL 311853Z AUTO 19021G31KT 10SM CLR 14/M03 A2988 RMK AO2 PK WND 19035/1827 SLP073 T01441028
Loading
Personal Weather Stations






























Interactive Weather Map
Tropical Storm Tracking
New forecast layout! Learn more

10-Day Weather Forecast

Advertisements
Track Severe Weather on mobile